createdAt,value
2023-02-16T17:28:58.771Z,91.20
2023-02-16T17:31:24.990Z,86.00
2023-02-16T17:31:27.337Z,83.00
2023-02-16T17:32:27.119Z,85.10
2023-02-16T17:33:26.806Z,85.80
2023-02-16T17:34:27.373Z,83.20
2023-02-16T17:35:28.617Z,86.50
2023-02-16T17:36:26.980Z,85.20
2023-02-16T17:40:15.340Z,83.70
2023-02-16T17:40:21.206Z,81.10
2023-02-16T17:41:27.252Z,84.10
2023-02-16T17:42:28.152Z,85.50
2023-02-16T17:46:39.838Z,81.80
2023-02-16T17:47:40.286Z,84.60
2023-02-16T17:50:02.044Z,86.30
2023-02-16T17:50:03.823Z,80.00
2023-02-16T17:51:03.724Z,81.00
2023-02-16T17:52:04.454Z,84.20
2023-02-16T17:53:04.396Z,85.10
2023-02-16T17:54:06.592Z,86.00
2023-02-16T17:55:04.816Z,84.70
2023-02-16T17:56:07.346Z,85.20
2023-02-16T17:57:03.606Z,84.40
2023-02-16T17:58:05.017Z,83.70
2023-02-16T17:59:16.406Z,84.90
2023-02-16T18:00:03.518Z,83.70
2023-02-16T18:01:03.962Z,83.00
2023-02-16T18:02:04.195Z,82.60
2023-02-16T18:03:11.689Z,82.80
2023-02-16T18:04:03.978Z,87.40
2023-02-16T18:05:03.476Z,81.80
2023-02-16T18:06:04.504Z,81.60
2023-02-16T18:07:06.338Z,84.60
2023-02-16T18:08:05.687Z,80.10
2023-02-16T18:09:04.274Z,81.40
2023-02-16T18:10:03.639Z,86.30
2023-02-16T18:11:03.955Z,83.50
2023-02-16T18:12:08.755Z,83.90
2023-02-16T18:13:03.776Z,81.90
2023-02-16T18:14:04.345Z,83.90
2023-02-16T18:15:03.626Z,79.70
2023-02-16T18:16:04.753Z,79.80
2023-02-16T18:17:04.899Z,81.50
2023-02-16T18:18:03.958Z,83.50
2023-02-16T18:19:04.439Z,85.60
2023-02-16T18:20:04.564Z,80.20
2023-02-16T18:21:04.003Z,81.50
2023-02-16T18:22:04.273Z,89.30
2023-02-16T18:23:03.347Z,84.30
2023-02-16T18:24:03.237Z,83.80
2023-02-16T18:25:03.859Z,85.10
2023-02-16T18:26:05.061Z,84.30
2023-02-16T18:27:04.432Z,83.80
2023-02-16T18:28:03.673Z,80.30
2023-02-16T18:29:04.898Z,85.40
2023-02-16T18:30:04.572Z,84.80
2023-02-16T18:31:04.171Z,82.50
2023-02-16T18:32:03.186Z,82.30
2023-02-16T18:33:03.165Z,82.80
2023-02-16T18:34:03.760Z,79.10
2023-02-16T18:35:04.083Z,76.50
2023-02-16T18:36:03.427Z,80.70
2023-02-16T18:37:03.082Z,84.70
2023-02-16T18:38:03.320Z,81.60
2023-02-16T18:39:03.122Z,84.90
2023-02-16T18:40:03.181Z,82.70
2023-02-16T18:41:03.581Z,85.80
2023-02-16T18:42:03.269Z,87.00
2023-02-16T18:43:03.090Z,78.30
2023-02-16T18:44:03.751Z,81.00
2023-02-16T18:45:03.826Z,85.10
2023-02-16T18:48:57.386Z,86.80
2023-02-16T18:49:57.374Z,80.50
2023-02-16T18:51:02.274Z,84.00
2023-02-16T18:54:52.236Z,80.10
2023-02-16T18:55:50.767Z,82.00
2023-02-16T18:56:50.802Z,82.90
2023-02-16T18:57:50.916Z,82.10
2023-02-16T18:58:50.740Z,82.40
2023-02-16T18:59:50.750Z,84.40
2023-02-16T19:00:50.745Z,79.10
2023-02-16T19:01:50.988Z,81.20
2023-02-16T19:02:50.771Z,82.10
2023-02-16T19:03:51.436Z,87.30
2023-02-16T19:04:51.579Z,77.50
2023-02-16T19:05:50.734Z,75.60
2023-02-16T19:06:50.684Z,79.20
2023-02-16T19:07:51.617Z,85.10
2023-02-16T19:08:53.240Z,80.70
2023-02-16T19:09:52.181Z,84.40
2023-02-16T19:10:52.200Z,84.80
2023-02-16T19:11:50.731Z,86.40
2023-02-16T19:12:50.941Z,82.50
2023-02-16T19:13:51.116Z,86.20
2023-02-16T19:14:52.031Z,83.30
2023-02-16T19:15:50.658Z,81.60
2023-02-16T19:16:50.594Z,82.50
2023-02-16T19:17:50.657Z,79.00
2023-02-16T19:18:50.705Z,88.70
2023-02-16T19:19:50.713Z,82.60
2023-02-16T19:20:50.738Z,80.20
2023-02-16T19:22:26.879Z,81.00
2023-02-16T19:23:55.562Z,78.80
2023-02-16T19:23:57.240Z,83.40
2023-02-16T19:24:57.333Z,79.70
2023-02-16T19:26:04.125Z,83.40
2023-02-16T19:26:57.335Z,85.70
2023-02-16T19:29:33.637Z,80.80
2023-02-16T19:29:36.344Z,81.30
2023-02-16T19:30:36.253Z,81.80
2023-02-16T19:31:36.347Z,81.60
2023-02-16T19:32:36.271Z,81.60
2023-02-16T19:33:36.199Z,78.70
2023-02-16T19:34:36.149Z,80.90
2023-02-16T19:35:36.822Z,76.30
2023-02-16T19:36:36.291Z,79.80
2023-02-16T19:37:36.619Z,79.60
2023-02-16T19:38:36.091Z,78.00
2023-02-16T19:39:52.186Z,84.00
2023-02-16T19:40:36.494Z,83.70
2023-02-16T19:42:48.750Z,79.50
2023-02-16T19:42:52.872Z,81.80
2023-02-16T19:48:18.411Z,74.30
2023-02-16T19:49:18.654Z,77.60
2023-02-16T19:50:22.737Z,77.00
2023-02-16T19:52:43.223Z,72.10
2023-02-16T19:52:51.685Z,74.00
2023-02-16T19:55:44.023Z,73.50
2023-02-16T19:55:47.739Z,80.70
2023-02-16T19:57:03.533Z,76.30
2023-02-16T19:57:47.010Z,77.50
2023-02-16T19:58:55.497Z,77.10
2023-02-16T19:59:58.574Z,74.80
2023-02-16T20:01:25.912Z,74.30
2023-02-16T20:02:26.455Z,81.20
2023-02-16T20:03:26.534Z,77.20
2023-02-16T20:04:31.800Z,76.50
2023-02-16T20:05:27.215Z,77.80
2023-02-16T20:06:25.923Z,74.10
2023-02-16T20:07:26.299Z,75.40
2023-02-16T20:08:25.809Z,82.70
2023-02-16T20:09:26.042Z,78.20
2023-02-16T20:10:26.074Z,72.30
2023-02-16T20:11:26.076Z,78.70
2023-02-16T20:12:25.814Z,76.80
2023-02-16T20:13:26.047Z,78.80
2023-02-16T20:14:26.141Z,76.30
2023-02-16T20:16:47.725Z,76.80
2023-02-16T20:16:49.758Z,74.30
2023-02-16T20:17:49.850Z,74.10
2023-02-16T20:18:52.251Z,76.10
2023-02-16T20:19:58.063Z,72.70
2023-02-16T20:23:50.189Z,77.60
2023-02-16T20:27:03.401Z,75.80
2023-02-16T20:28:08.474Z,76.50
2023-02-16T20:33:37.464Z,74.80
2023-02-16T20:34:31.597Z,72.90
2023-02-16T20:35:33.898Z,73.60
2023-02-16T20:36:39.981Z,77.20
2023-02-16T20:39:16.906Z,76.50
2023-02-16T20:39:27.273Z,77.70
2023-02-16T20:40:26.959Z,74.30
2023-02-16T20:42:45.427Z,71.90
2023-02-16T20:42:47.182Z,73.20
2023-02-16T20:43:47.267Z,70.90
2023-02-16T20:44:47.872Z,73.30
2023-02-16T20:47:33.162Z,76.40
2023-02-16T20:49:44.549Z,76.40
2023-02-16T20:49:50.406Z,67.10
2023-02-16T20:52:14.601Z,73.10
2023-02-16T20:53:53.790Z,70.80
2023-02-16T20:54:49.526Z,74.90
2023-02-16T20:55:48.583Z,75.00
2023-02-16T20:56:48.231Z,74.80
2023-02-16T20:57:49.035Z,73.80
2023-02-16T21:03:09.912Z,73.50
2023-02-16T21:03:12.819Z,75.30
2023-02-16T21:04:11.398Z,74.70
2023-02-16T21:05:11.403Z,72.10
2023-02-16T21:06:11.398Z,73.20
2023-02-16T21:07:11.425Z,72.60
2023-02-16T21:08:11.384Z,74.30
2023-02-16T21:09:11.422Z,73.10
2023-02-16T21:10:11.358Z,71.80
2023-02-16T21:11:11.327Z,74.20
2023-02-16T21:12:11.340Z,73.70
2023-02-16T21:13:11.350Z,70.30
2023-02-16T21:14:11.339Z,69.50
2023-02-16T21:15:11.320Z,64.60
2023-02-16T21:16:11.347Z,68.90
2023-02-16T21:17:11.251Z,71.50
2023-02-16T21:18:11.279Z,68.80
2023-02-16T21:19:21.239Z,69.20
2023-02-16T21:20:13.251Z,67.70
2023-02-16T21:21:11.257Z,72.80
2023-02-16T21:22:11.210Z,68.80
2023-02-16T21:23:11.202Z,65.40
2023-02-16T21:24:11.180Z,63.20
2023-02-16T21:25:11.194Z,68.90
2023-02-16T21:26:11.240Z,66.70
2023-02-16T21:27:11.230Z,69.40
2023-02-16T21:28:11.321Z,65.60
2023-02-16T21:29:11.113Z,66.60
2023-02-16T21:30:11.155Z,70.10
2023-02-16T21:31:11.426Z,67.00
2023-02-16T21:32:26.885Z,72.20
2023-02-16T21:33:12.617Z,68.60
2023-02-16T21:34:11.273Z,67.00
2023-02-16T21:35:14.115Z,67.00
2023-02-16T21:36:35.534Z,68.10
2023-02-16T21:40:13.164Z,69.70
2023-02-16T21:42:01.686Z,64.20
2023-02-16T21:42:53.637Z,66.90
2023-02-16T21:44:53.633Z,62.40
2023-02-16T21:47:40.704Z,68.40
2023-02-16T21:47:53.012Z,66.50
2023-02-16T21:48:52.314Z,62.50
2023-02-16T21:49:48.131Z,67.60
2023-02-16T21:51:22.540Z,66.10
2023-02-16T21:53:12.412Z,63.20
2023-02-16T21:56:12.605Z,65.60
2023-02-16T21:56:23.957Z,60.40
2023-02-16T21:57:17.151Z,64.50
2023-02-16T21:58:17.441Z,62.60
2023-02-16T21:59:18.102Z,67.50
2023-02-16T22:01:38.953Z,69.20
2023-02-16T22:01:41.609Z,65.50
2023-02-16T22:03:06.491Z,62.70
2023-02-16T22:03:41.598Z,65.50
2023-02-16T22:04:41.975Z,63.50
2023-02-16T22:05:41.422Z,62.70
2023-02-16T22:08:30.261Z,63.20
2023-02-16T22:08:34.926Z,61.60
2023-02-16T22:09:35.225Z,61.20
2023-02-16T22:10:35.065Z,65.30
2023-02-16T22:11:34.681Z,60.80
2023-02-16T22:12:47.613Z,62.30
2023-02-16T22:15:23.069Z,62.20
2023-02-16T22:17:48.989Z,62.30
2023-02-16T22:17:55.069Z,58.60
2023-02-16T22:18:54.532Z,60.20
2023-02-16T22:19:54.794Z,57.70
2023-02-16T22:27:06.613Z,56.40
2023-02-16T22:29:52.195Z,61.20
2023-02-16T22:30:46.283Z,56.10
2023-02-16T22:31:45.922Z,59.20
2023-02-16T22:37:06.223Z,61.80
2023-02-16T22:39:31.356Z,57.30
2023-02-16T22:42:38.075Z,57.60
2023-02-16T22:43:30.345Z,57.90
2023-02-16T22:44:53.294Z,56.80
2023-02-16T22:46:52.480Z,58.60
2023-02-16T22:46:54.123Z,57.80
2023-02-16T22:47:54.081Z,55.20
2023-02-16T22:48:54.013Z,58.50
2023-02-16T22:49:54.044Z,65.60
2023-02-16T22:50:54.043Z,60.30
2023-02-16T22:51:54.001Z,64.40
2023-02-16T22:52:53.929Z,61.60
2023-02-16T22:53:55.045Z,61.70
2023-02-16T22:54:53.927Z,65.20
2023-02-16T22:55:53.960Z,60.90
2023-02-16T22:56:54.260Z,65.40
2023-02-16T22:57:53.957Z,66.50
2023-02-16T22:58:56.359Z,63.80
2023-02-16T22:59:54.713Z,64.40
2023-02-16T23:00:54.114Z,65.30
2023-02-16T23:01:53.923Z,64.20
2023-02-16T23:02:53.886Z,62.10
2023-02-16T23:03:53.961Z,64.70
2023-02-16T23:04:53.968Z,62.40
2023-02-16T23:05:53.761Z,64.20
2023-02-16T23:06:53.830Z,59.60
2023-02-16T23:07:53.745Z,67.40
2023-02-16T23:08:53.967Z,58.90
2023-02-16T23:09:53.673Z,62.80
2023-02-16T23:10:53.754Z,64.00
2023-02-16T23:11:53.890Z,64.40
2023-02-16T23:12:53.862Z,65.50
2023-02-16T23:13:53.852Z,60.80
2023-02-16T23:14:53.674Z,66.30
2023-02-16T23:15:53.872Z,60.50
2023-02-16T23:18:14.006Z,60.40
2023-02-16T23:18:15.543Z,58.70
2023-02-16T23:19:15.540Z,63.50
2023-02-16T23:20:15.513Z,59.80
2023-02-16T23:21:15.480Z,58.50
2023-02-16T23:22:15.476Z,58.30
2023-02-16T23:23:15.605Z,54.60
2023-02-16T23:24:15.507Z,59.60
2023-02-16T23:25:15.491Z,57.90
2023-02-16T23:26:15.472Z,56.20
2023-02-16T23:27:16.037Z,58.90
2023-02-16T23:28:15.442Z,58.70
2023-02-16T23:29:15.453Z,58.80
2023-02-16T23:30:15.512Z,60.20
2023-02-16T23:31:15.485Z,57.20
2023-02-16T23:32:15.629Z,59.70
2023-02-16T23:33:15.353Z,55.70
2023-02-16T23:34:15.346Z,56.70
2023-02-16T23:35:15.363Z,56.20
2023-02-16T23:36:15.437Z,58.80
2023-02-16T23:37:15.340Z,54.90
2023-02-16T23:38:15.320Z,55.90
2023-02-16T23:39:15.465Z,57.50
2023-02-16T23:40:15.327Z,52.70
2023-02-16T23:41:15.461Z,56.70
2023-02-16T23:42:15.336Z,59.10
2023-02-16T23:43:15.227Z,56.70
2023-02-16T23:44:15.258Z,61.30
2023-02-16T23:45:15.176Z,56.90
2023-02-16T23:46:15.298Z,56.80
2023-02-16T23:47:15.309Z,53.70
2023-02-16T23:48:15.370Z,56.40
2023-02-16T23:49:15.223Z,55.30
2023-02-16T23:50:16.157Z,59.20
2023-02-16T23:52:44.078Z,53.90
2023-02-16T23:53:43.978Z,56.20
2023-02-16T23:54:44.014Z,55.70
2023-02-16T23:55:43.966Z,55.40
2023-02-16T23:56:43.950Z,55.90
2023-02-16T23:57:43.791Z,54.30
2023-02-16T23:58:43.829Z,52.40
2023-02-16T23:59:43.913Z,56.70
